Time;durP1;ratioP1;P1;durP2;ratioP2;P2;SDS_P1;SDS_P2;PMS_P1;PMS_P2;Temp;Humidity;BMP_temperature;BMP_pressure;BME280_temperature;BME280_humidity;BME280_pressure;Samples;Min_cycle;Max_cycle;Signal;HPM_P1;HPM_P2
2023/08/26 00:01:55;;;;;;;95.73;53.37;;;20.10;99.90;;;;;;5021443;28;20481;-84
2023/08/26 00:04:21;;;;;;;95.67;47.43;;;20.10;99.90;;;;;;5022863;28;20165;-84
2023/08/26 00:06:48;;;;;;;99.90;59.77;;;20.00;99.90;;;;;;5022910;28;20175;-84
2023/08/26 00:09:13;;;;;;;93.53;51.07;;;20.00;99.90;;;;;;5022904;28;20555;-83
2023/08/26 00:11:41;;;;;;;99.10;57.53;;;20.00;99.90;;;;;;5020837;28;20494;-84
2023/08/26 00:14:07;;;;;;;98.73;58.07;;;20.00;99.90;;;;;;5020908;28;20171;-84
2023/08/26 00:16:32;;;;;;;96.83;66.10;;;19.90;99.90;;;;;;5021746;28;20780;-84
2023/08/26 00:19:02;;;;;;;96.83;60.30;;;19.90;99.90;;;;;;5022633;28;20258;-83
2023/08/26 00:21:28;;;;;;;96.37;60.27;;;19.80;99.90;;;;;;5021846;28;20257;-83
2023/08/26 00:23:55;;;;;;;93.20;61.27;;;19.80;99.90;;;;;;5020901;28;20445;-84
2023/08/26 00:26:21;;;;;;;94.77;57.03;;;19.80;99.90;;;;;;5022338;28;20416;-84
2023/08/26 00:28:47;;;;;;;104.23;67.57;;;19.80;99.90;;;;;;5022204;28;20816;-84
2023/08/26 00:31:13;;;;;;;103.13;65.30;;;19.80;99.90;;;;;;5022512;28;20433;-84
2023/08/26 00:33:38;;;;;;;102.50;68.37;;;19.80;99.90;;;;;;5021131;28;20174;-84
2023/08/26 00:36:05;;;;;;;91.40;50.37;;;19.80;99.90;;;;;;5022913;28;20900;-84
2023/08/26 00:38:30;;;;;;;104.27;68.73;;;19.90;99.90;;;;;;5021414;28;20173;-83
2023/08/26 00:40:56;;;;;;;93.13;54.93;;;19.90;99.90;;;;;;5020204;28;20893;-84
2023/08/26 00:43:22;;;;;;;84.40;30.50;;;19.90;99.90;;;;;;5022303;28;20166;-84
2023/08/26 00:45:50;;;;;;;86.63;32.07;;;20.00;99.90;;;;;;5022043;28;20177;-84
2023/08/26 00:48:17;;;;;;;90.60;41.87;;;19.90;99.90;;;;;;5021188;28;20202;-84
2023/08/26 00:50:44;;;;;;;83.27;30.43;;;19.90;99.90;;;;;;5020965;28;20429;-84
2023/08/26 00:53:12;;;;;;;84.67;35.40;;;19.90;99.90;;;;;;5021799;28;20433;-83
2023/08/26 00:55:42;;;;;;;89.93;27.83;;;19.80;99.90;;;;;;5020436;28;20438;-82
2023/08/26 00:58:08;;;;;;;96.30;48.70;;;19.80;99.90;;;;;;5021125;28;20405;-82
2023/08/26 01:00:36;;;;;;;88.00;24.87;;;19.70;99.90;;;;;;5020835;28;20417;-82
2023/08/26 01:03:03;;;;;;;82.53;30.37;;;19.70;99.90;;;;;;5021635;28;20404;-82
2023/08/26 01:05:29;;;;;;;86.70;37.83;;;19.60;99.90;;;;;;5021143;28;20401;-82
2023/08/26 01:07:56;;;;;;;87.53;43.30;;;19.60;99.90;;;;;;5021586;28;20423;-82
2023/08/26 01:10:31;;;;;;;88.47;41.40;;;19.60;99.90;;;;;;5021631;28;20528;-82
2023/08/26 01:13:04;;;;;;;88.47;39.27;;;19.60;99.90;;;;;;5021698;28;20382;-82
2023/08/26 01:15:30;;;;;;;84.90;36.73;;;19.50;99.90;;;;;;5020993;28;20447;-82
2023/08/26 01:17:59;;;;;;;90.33;45.33;;;19.50;99.90;;;;;;5021840;28;20392;-82
2023/08/26 01:20:25;;;;;;;87.10;39.90;;;19.50;99.90;;;;;;5021244;28;20932;-82
2023/08/26 01:22:54;;;;;;;77.63;18.40;;;19.60;99.90;;;;;;5019881;28;20410;-82
2023/08/26 01:25:20;;;;;;;75.17;11.83;;;19.60;99.90;;;;;;5021323;28;20413;-82
2023/08/26 01:27:46;;;;;;;75.40;12.47;;;19.50;99.90;;;;;;5021805;28;20819;-82
2023/08/26 01:30:12;;;;;;;76.50;10.00;;;19.40;99.90;;;;;;5019181;28;20484;-82
2023/08/26 01:32:48;;;;;;;74.37;10.40;;;19.30;99.90;;;;;;5021009;28;20630;-82
2023/08/26 01:35:19;;;;;;;72.83;7.80;;;19.30;99.90;;;;;;5021075;28;20381;-82
2023/08/26 01:37:46;;;;;;;72.80;9.20;;;19.30;99.90;;;;;;5020622;28;20381;-82
2023/08/26 01:40:13;;;;;;;76.50;10.50;;;19.20;99.90;;;;;;5019688;28;20424;-82
2023/08/26 01:42:41;;;;;;;74.03;9.83;;;19.20;99.90;;;;;;5020548;28;20412;-82
2023/08/26 01:45:07;;;;;;;72.53;10.03;;;19.10;99.90;;;;;;5019706;28;20416;-82
2023/08/26 01:47:33;;;;;;;75.33;10.53;;;19.10;99.90;;;;;;5019303;28;20901;-82
2023/08/26 01:49:59;;;;;;;73.70;11.67;;;19.10;99.90;;;;;;5020202;28;20449;-82
2023/08/26 01:52:24;;;;;;;79.80;15.87;;;19.10;99.90;;;;;;5020653;28;20174;-82
2023/08/26 01:54:50;;;;;;;76.30;14.07;;;19.00;99.90;;;;;;5018371;28;20548;-82
2023/08/26 01:57:16;;;;;;;89.53;16.70;;;18.90;99.90;;;;;;5020361;28;20165;-82
2023/08/26 01:59:42;;;;;;;76.90;17.83;;;18.90;99.90;;;;;;5019882;28;20188;-82
2023/08/26 02:02:08;;;;;;;83.90;17.90;;;18.80;99.90;;;;;;5018422;28;20848;-82
2023/08/26 02:04:37;;;;;;;81.60;14.40;;;18.50;99.90;;;;;;5019719;28;20440;-82
2023/08/26 02:07:02;;;;;;;77.83;13.87;;;18.50;99.90;;;;;;5019889;28;20172;-82
2023/08/26 02:09:28;;;;;;;76.63;16.10;;;18.30;99.90;;;;;;5020234;28;20515;-82
2023/08/26 02:11:54;;;;;;;77.87;11.77;;;18.40;99.90;;;;;;5020486;28;20621;-82
2023/08/26 02:14:19;;;;;;;73.97;11.70;;;18.40;99.90;;;;;;5019002;28;20532;-82
2023/08/26 02:16:45;;;;;;;79.57;16.10;;;18.40;99.90;;;;;;5020117;28;20256;-82
2023/08/26 02:19:11;;;;;;;78.43;11.60;;;18.40;99.90;;;;;;5018528;28;20181;-82
2023/08/26 02:21:38;;;;;;;79.27;16.10;;;18.40;99.90;;;;;;5019945;28;20173;-82
2023/08/26 02:24:04;;;;;;;78.43;12.50;;;18.40;99.90;;;;;;5019588;28;20238;-82
2023/08/26 02:26:30;;;;;;;76.00;8.93;;;18.30;99.90;;;;;;5017515;28;20445;-82
2023/08/26 02:28:56;;;;;;;74.87;10.07;;;18.20;99.90;;;;;;5019782;28;20447;-82
2023/08/26 02:31:21;;;;;;;75.60;10.30;;;18.10;99.90;;;;;;5020212;28;20188;-83
2023/08/26 02:33:47;;;;;;;74.47;11.30;;;18.10;99.90;;;;;;5018904;28;20224;-81
2023/08/26 02:36:13;;;;;;;73.93;8.30;;;18.00;99.90;;;;;;5018641;28;20166;-82
2023/08/26 02:38:38;;;;;;;73.80;7.60;;;18.00;99.90;;;;;;5017964;28;20170;-82
2023/08/26 02:41:04;;;;;;;73.50;9.70;;;18.00;99.90;;;;;;5018880;28;20245;-82
2023/08/26 02:43:30;;;;;;;75.63;11.80;;;18.00;99.90;;;;;;5019674;28;20169;-82
2023/08/26 02:45:56;;;;;;;72.60;8.40;;;17.90;99.90;;;;;;5019223;28;20182;-82
2023/08/26 02:48:23;;;;;;;73.37;9.27;;;17.90;99.90;;;;;;5018634;28;20169;-82
2023/08/26 02:50:56;;;;;;;76.20;12.50;;;17.90;99.90;;;;;;5017389;28;20490;-82
2023/08/26 02:53:23;;;;;;;75.37;11.90;;;17.90;99.90;;;;;;5019150;28;20397;-81
2023/08/26 02:55:48;;;;;;;73.07;12.03;;;17.90;99.90;;;;;;5018924;28;20432;-82
2023/08/26 02:58:14;;;;;;;76.17;15.50;;;17.90;99.90;;;;;;5019069;28;20405;-82
2023/08/26 03:00:40;;;;;;;75.27;12.53;;;18.00;99.90;;;;;;5017428;28;20686;-82
2023/08/26 03:03:05;;;;;;;73.90;12.10;;;18.00;99.90;;;;;;5018412;28;20162;-82
2023/08/26 03:05:31;;;;;;;75.87;15.50;;;18.00;99.90;;;;;;5019052;28;20170;-82
2023/08/26 03:07:57;;;;;;;75.40;14.00;;;18.10;99.90;;;;;;5018446;28;20194;-82
2023/08/26 03:10:22;;;;;;;78.33;13.60;;;18.00;99.90;;;;;;5016958;28;20662;-82
2023/08/26 03:12:48;;;;;;;75.93;13.77;;;17.90;99.90;;;;;;5019172;28;20167;-82
2023/08/26 03:15:14;;;;;;;75.27;11.77;;;17.90;99.90;;;;;;5024986;28;20174;-82
2023/08/26 03:17:39;;;;;;;73.37;11.03;;;17.80;99.90;;;;;;5024862;28;20146;-82
2023/08/26 03:20:05;;;;;;;76.20;14.10;;;17.80;99.90;;;;;;5025204;28;20234;-82
2023/08/26 03:22:31;;;;;;;75.47;16.83;;;17.70;99.90;;;;;;5025252;28;20166;-82
2023/08/26 03:24:57;;;;;;;76.20;15.77;;;17.80;99.90;;;;;;5025024;28;20413;-82
2023/08/26 03:27:22;;;;;;;75.13;15.37;;;17.80;99.90;;;;;;5025233;28;20178;-82
2023/08/26 03:29:48;;;;;;;75.93;16.33;;;17.70;99.90;;;;;;5024988;28;20280;-82
2023/08/26 03:32:13;;;;;;;76.17;15.43;;;17.70;99.90;;;;;;5025196;28;20162;-82
2023/08/26 03:34:39;;;;;;;76.17;17.50;;;17.70;99.90;;;;;;5025287;28;20502;-82
2023/08/26 03:37:05;;;;;;;73.80;12.43;;;17.70;99.90;;;;;;5025323;28;20626;-82
2023/08/26 03:39:30;;;;;;;77.10;9.80;;;17.70;99.90;;;;;;5024907;28;20185;-82
2023/08/26 03:41:56;;;;;;;75.77;15.90;;;17.60;99.90;;;;;;5025295;28;20178;-82
2023/08/26 03:44:21;;;;;;;74.20;12.70;;;17.50;99.90;;;;;;5025530;28;20193;-82
2023/08/26 03:46:47;;;;;;;75.10;14.30;;;17.50;99.90;;;;;;5025204;28;20169;-82
2023/08/26 03:49:13;;;;;;;76.60;12.87;;;17.40;99.90;;;;;;5024293;28;20206;-82
2023/08/26 03:51:39;;;;;;;77.40;15.17;;;17.40;99.90;;;;;;5024888;28;20417;-82
2023/08/26 03:54:05;;;;;;;76.40;16.47;;;17.40;99.90;;;;;;5024833;28;20173;-82
2023/08/26 03:56:30;;;;;;;74.83;14.67;;;17.40;99.90;;;;;;5025429;28;20165;-81
2023/08/26 03:58:57;;;;;;;85.10;16.80;;;17.40;99.90;;;;;;5024876;28;20927;-81
2023/08/26 04:01:23;;;;;;;76.87;16.40;;;17.30;99.90;;;;;;5024910;28;20558;-82
2023/08/26 04:03:52;;;;;;;75.27;16.50;;;17.40;99.90;;;;;;5024967;28;20487;-82
2023/08/26 04:06:18;;;;;;;79.70;15.57;;;17.30;99.90;;;;;;5025135;28;20436;-81
2023/08/26 04:08:45;;;;;;;76.30;14.93;;;17.20;99.90;;;;;;5025058;28;20440;-82
2023/08/26 04:11:11;;;;;;;74.40;15.57;;;17.10;99.90;;;;;;5023424;28;20793;-81
2023/08/26 04:13:37;;;;;;;76.30;16.03;;;17.00;99.90;;;;;;5024598;28;20401;-82
2023/08/26 04:16:06;;;;;;;74.17;10.83;;;17.00;99.90;;;;;;5089049;22;20233;-83
2023/08/26 04:18:32;;;;;;;74.67;12.70;;;16.90;99.90;;;;;;5023494;28;20429;-83
2023/08/26 04:20:58;;;;;;;76.57;16.37;;;16.90;99.90;;;;;;5040892;28;20420;-83
2023/08/26 04:23:24;;;;;;;74.40;16.70;;;17.00;99.90;;;;;;5043777;28;20423;-83
2023/08/26 04:25:59;;;;;;;74.00;13.57;;;17.00;99.90;;;;;;5040803;28;20173;-83
2023/08/26 04:28:25;;;;;;;72.70;7.20;;;17.10;99.90;;;;;;5040374;28;20521;-83
2023/08/26 04:30:50;;;;;;;73.30;11.00;;;17.00;99.90;;;;;;5023226;28;20440;-83
2023/08/26 04:33:16;;;;;;;73.67;10.70;;;16.90;99.90;;;;;;5041132;28;20614;-83
2023/08/26 04:35:42;;;;;;;72.00;10.80;;;16.60;99.90;;;;;;5041874;28;20168;-85
2023/08/26 04:38:07;;;;;;;74.57;11.43;;;16.60;99.90;;;;;;5041623;28;20177;-83
2023/08/26 04:40:33;;;;;;;78.90;13.00;;;16.70;99.90;;;;;;5040969;28;20286;-83
2023/08/26 04:42:59;;;;;;;77.00;14.30;;;16.70;99.90;;;;;;5040798;28;20166;-84
2023/08/26 04:45:24;;;;;;;73.30;11.07;;;16.80;99.90;;;;;;5040849;28;20196;-83
2023/08/26 04:47:51;;;;;;;72.13;9.07;;;16.80;99.90;;;;;;5023076;28;20173;-83
2023/08/26 04:50:16;;;;;;;72.23;9.77;;;16.80;99.90;;;;;;5040391;28;20200;-83
2023/08/26 04:52:42;;;;;;;74.77;12.13;;;16.90;99.90;;;;;;5040982;28;20413;-83
2023/08/26 04:55:09;;;;;;;73.60;11.33;;;17.00;99.90;;;;;;5040655;28;20169;-84
2023/08/26 04:57:37;;;;;;;74.80;10.37;;;17.00;99.90;;;;;;5041289;28;20410;-84
2023/08/26 05:00:09;;;;;;;72.70;8.63;;;17.00;99.90;;;;;;5040339;28;20420;-83
2023/08/26 05:02:35;;;;;;;70.67;6.90;;;17.00;99.90;;;;;;5040842;28;20387;-83
2023/08/26 05:05:01;;;;;;;71.33;6.53;;;17.00;99.90;;;;;;5039369;28;20422;-83
2023/08/26 05:07:27;;;;;;;72.20;8.50;;;17.00;99.90;;;;;;5040460;28;20171;-83
2023/08/26 05:09:53;;;;;;;72.10;8.90;;;16.80;99.90;;;;;;5040066;28;20992;-83
2023/08/26 05:12:21;;;;;;;71.97;8.20;;;16.70;99.90;;;;;;5039959;28;20260;-83
2023/08/26 05:14:47;;;;;;;72.33;9.30;;;16.70;99.90;;;;;;5040366;28;20914;-83
2023/08/26 05:17:12;;;;;;;73.53;9.77;;;16.60;99.90;;;;;;5040645;28;20420;-83
2023/08/26 05:19:38;;;;;;;72.13;8.80;;;16.60;99.90;;;;;;5039750;28;20246;-83
2023/08/26 05:22:04;;;;;;;74.60;12.17;;;16.50;99.90;;;;;;5039577;28;20173;-83
2023/08/26 05:24:30;;;;;;;74.57;13.93;;;16.40;99.90;;;;;;5039849;28;20207;-84
2023/08/26 05:26:57;;;;;;;75.67;13.13;;;16.30;99.90;;;;;;5022434;28;20177;-83
2023/08/26 05:29:22;;;;;;;74.87;12.83;;;16.50;99.90;;;;;;5039929;28;20990;-83
2023/08/26 05:31:48;;;;;;;74.93;12.13;;;16.60;99.90;;;;;;5021626;28;20419;-83
2023/08/26 05:34:14;;;;;;;75.00;13.40;;;16.50;99.90;;;;;;5039971;28;20247;-83
2023/08/26 05:36:40;;;;;;;74.67;14.47;;;16.40;99.90;;;;;;5039856;28;20157;-83
2023/08/26 05:39:05;;;;;;;77.43;11.43;;;16.50;99.90;;;;;;5021667;28;20601;-83
2023/08/26 05:41:31;;;;;;;76.20;13.83;;;16.60;99.90;;;;;;5038966;28;20444;-83
2023/08/26 05:43:56;;;;;;;73.10;12.20;;;16.60;99.90;;;;;;5039440;28;20162;-83
2023/08/26 05:46:22;;;;;;;73.47;13.20;;;16.40;99.90;;;;;;5039762;28;20176;-83
2023/08/26 05:48:48;;;;;;;72.00;12.47;;;16.50;99.90;;;;;;5039510;28;20592;-83
2023/08/26 05:51:13;;;;;;;74.90;11.60;;;16.60;99.90;;;;;;5039356;28;20659;-84
2023/08/26 05:53:39;;;;;;;75.73;13.47;;;16.60;99.90;;;;;;5039707;28;20170;-83
2023/08/26 05:56:05;;;;;;;76.90;13.23;;;16.60;99.90;;;;;;5039123;28;20168;-83
2023/08/26 05:58:31;;;;;;;75.20;13.33;;;16.70;99.90;;;;;;5021728;28;20576;-83
2023/08/26 06:00:56;;;;;;;74.07;12.90;;;16.70;99.90;;;;;;5038597;28;20222;-83
2023/08/26 06:03:22;;;;;;;73.40;12.57;;;16.70;99.90;;;;;;5021373;28;20173;-83
2023/08/26 06:05:48;;;;;;;73.23;11.20;;;16.70;99.90;;;;;;5038901;28;20189;-83
2023/08/26 06:08:13;;;;;;;74.63;12.37;;;16.80;99.90;;;;;;5038578;28;20176;-83
2023/08/26 06:10:39;;;;;;;76.43;12.43;;;16.80;99.90;;;;;;5038684;28;20561;-83
2023/08/26 06:13:05;;;;;;;74.60;12.63;;;16.90;99.90;;;;;;5039682;28;20169;-84
2023/08/26 06:15:30;;;;;;;74.20;12.07;;;16.80;99.90;;;;;;5038908;28;20176;-83
2023/08/26 06:17:56;;;;;;;87.43;14.70;;;16.70;99.90;;;;;;5038781;28;20181;-83
2023/08/26 06:20:25;;;;;;;75.57;11.00;;;16.60;99.90;;;;;;5039281;28;20645;-83
2023/08/26 06:22:51;;;;;;;73.57;11.90;;;16.60;99.90;;;;;;5039071;28;20632;-83
2023/08/26 06:25:17;;;;;;;79.07;13.90;;;16.70;99.90;;;;;;5020925;28;20423;-83
2023/08/26 06:27:42;;;;;;;74.73;11.20;;;16.80;99.90;;;;;;5038108;28;20165;-83
2023/08/26 06:30:08;;;;;;;74.47;13.13;;;16.80;99.90;;;;;;5038826;28;20223;-82
2023/08/26 06:32:34;;;;;;;75.10;12.37;;;17.00;99.90;;;;;;5038430;28;20629;-83
2023/08/26 06:35:00;;;;;;;74.30;13.20;;;17.00;99.90;;;;;;5038075;28;20498;-83
2023/08/26 06:37:26;;;;;;;74.23;12.23;;;16.90;99.90;;;;;;5020950;28;20491;-83
2023/08/26 06:39:52;;;;;;;74.07;11.97;;;17.00;99.90;;;;;;5037877;28;20430;-83
2023/08/26 06:42:18;;;;;;;72.37;11.03;;;17.00;99.90;;;;;;5038265;28;20198;-83
2023/08/26 06:44:43;;;;;;;73.50;13.77;;;17.00;99.90;;;;;;5019747;28;20268;-82
2023/08/26 06:47:09;;;;;;;78.97;12.30;;;17.00;99.90;;;;;;5036544;28;20181;-82
2023/08/26 06:49:35;;;;;;;73.73;12.57;;;17.00;99.90;;;;;;5034464;28;20241;-82
2023/08/26 06:52:02;;;;;;;72.77;11.70;;;17.00;99.90;;;;;;5036706;28;20436;-82
2023/08/26 06:54:28;;;;;;;72.80;10.50;;;17.10;99.90;;;;;;5036209;28;20956;-82
2023/08/26 06:56:53;;;;;;;74.33;11.37;;;17.10;99.90;;;;;;5035580;28;20431;-81
2023/08/26 06:59:19;;;;;;;79.70;11.23;;;17.00;99.90;;;;;;5033522;28;20534;-81
2023/08/26 07:01:45;;;;;;;74.73;11.40;;;17.00;99.90;;;;;;5035595;28;20919;-82
2023/08/26 07:04:11;;;;;;;76.40;13.07;;;17.10;99.90;;;;;;5036115;28;20823;-82
2023/08/26 07:06:37;;;;;;;76.03;11.63;;;17.10;99.90;;;;;;5036345;28;20306;-82
2023/08/26 07:09:06;;;;;;;74.00;11.80;;;17.20;99.90;;;;;;5035650;28;20431;-82
2023/08/26 07:11:32;;;;;;;79.40;12.90;;;17.10;99.90;;;;;;5018361;28;20822;-82
2023/08/26 07:13:59;;;;;;;73.87;10.60;;;17.20;99.90;;;;;;5036202;28;20414;-83
2023/08/26 07:16:25;;;;;;;73.57;10.23;;;17.20;99.90;;;;;;5036302;28;20204;-82
2023/08/26 07:18:51;;;;;;;73.87;10.97;;;17.20;99.90;;;;;;5036070;28;20449;-83
2023/08/26 07:21:16;;;;;;;72.60;8.93;;;17.40;99.90;;;;;;5018637;28;20439;-82
2023/08/26 07:23:42;;;;;;;74.23;11.20;;;17.40;99.90;;;;;;5036226;28;20660;-82
2023/08/26 07:26:10;;;;;;;73.50;8.33;;;17.50;99.90;;;;;;5035573;28;20172;-82
2023/08/26 07:28:36;;;;;;;73.17;11.33;;;17.50;99.90;;;;;;5036366;28;20168;-82
2023/08/26 07:31:03;;;;;;;73.90;11.93;;;17.50;99.90;;;;;;5036090;28;20448;-82
2023/08/26 07:33:30;;;;;;;73.03;8.50;;;17.50;99.90;;;;;;5036027;28;20173;-82
2023/08/26 07:36:03;;;;;;;73.47;8.37;;;17.60;99.90;;;;;;5018323;28;20400;-82
2023/08/26 07:38:29;;;;;;;71.90;7.90;;;17.60;99.90;;;;;;5019404;28;20436;-82
2023/08/26 07:40:55;;;;;;;77.87;9.03;;;17.50;99.90;;;;;;5036309;28;20420;-82
2023/08/26 07:43:21;;;;;;;74.13;11.27;;;17.60;99.90;;;;;;5035232;28;20525;-82
2023/08/26 07:45:46;;;;;;;72.40;9.37;;;17.50;99.90;;;;;;5036365;28;20149;-82
2023/08/26 07:48:12;;;;;;;72.33;10.83;;;17.60;99.90;;;;;;5035885;28;20174;-82
2023/08/26 07:50:38;;;;;;;70.67;8.30;;;17.60;99.90;;;;;;5036183;28;20225;-81
2023/08/26 07:53:05;;;;;;;71.17;8.70;;;17.60;99.90;;;;;;5035015;28;20400;-81
2023/08/26 07:55:31;;;;;;;71.27;9.60;;;17.70;99.90;;;;;;5017637;28;20169;-82
2023/08/26 07:57:57;;;;;;;71.40;7.47;;;17.70;99.90;;;;;;5018380;28;20554;-82
2023/08/26 08:00:23;;;;;;;74.80;8.43;;;17.70;99.90;;;;;;5018075;28;20489;-82
2023/08/26 08:02:48;;;;;;;73.70;7.30;;;17.70;99.90;;;;;;5022473;28;20161;-82
2023/08/26 08:05:14;;;;;;;76.23;9.07;;;17.70;99.90;;;;;;5040084;28;20637;-83
2023/08/26 08:07:40;;;;;;;70.23;6.83;;;17.80;99.90;;;;;;5023444;28;20668;-83
2023/08/26 08:10:06;;;;;;;73.83;6.73;;;17.80;99.90;;;;;;5041741;28;20260;-83
2023/08/26 08:12:32;;;;;;;71.37;4.97;;;17.80;99.90;;;;;;5040995;28;20162;-83
2023/08/26 08:14:58;;;;;;;70.93;5.93;;;17.90;99.90;;;;;;5040527;28;20758;-82
2023/08/26 08:17:23;;;;;;;73.30;5.03;;;17.80;86.00;;;;;;5040053;28;20188;-82
2023/08/26 08:19:49;;;;;;;75.10;6.07;;;17.90;79.90;;;;;;5022961;28;20211;-83
2023/08/26 08:22:16;;;;;;;72.67;5.47;;;18.00;50.60;;;;;;5041004;28;20615;-83
2023/08/26 08:24:42;;;;;;;72.87;5.93;;;18.00;32.70;;;;;;5023429;28;20161;-83
2023/08/26 08:27:08;;;;;;;71.50;5.80;;;18.10;29.70;;;;;;5023711;28;20545;-83
2023/08/26 08:29:34;;;;;;;70.77;6.70;;;18.10;23.90;;;;;;5040758;28;20423;-83
2023/08/26 08:32:01;;;;;;;73.67;6.80;;;18.20;24.60;;;;;;5023238;28;20440;-83
2023/08/26 08:34:26;;;;;;;70.37;6.30;;;18.20;15.30;;;;;;5041172;28;20404;-83
2023/08/26 08:36:52;;;;;;;71.47;6.73;;;18.30;13.30;;;;;;5040569;28;20408;-83
2023/08/26 08:39:18;;;;;;;70.57;6.70;;;18.40;16.40;;;;;;5040775;28;20288;-83
2023/08/26 08:41:51;;;;;;;70.57;5.80;;;18.40;18.70;;;;;;5022593;28;20197;-83
2023/08/26 08:44:18;;;;;;;72.30;6.77;;;18.50;19.00;;;;;;5040768;28;20146;-83
2023/08/26 08:46:45;;;;;;;70.93;7.70;;;18.60;17.20;;;;;;5040287;28;20776;-83
2023/08/26 08:49:12;;;;;;;72.40;7.47;;;18.70;6.40;;;;;;5041148;28;20516;-83
2023/08/26 08:51:39;;;;;;;71.80;8.20;;;18.70;1.00;;;;;;5040328;28;20408;-83
2023/08/26 08:54:06;;;;;;;71.07;7.47;;;18.70;1.00;;;;;;5040150;28;20923;-83
2023/08/26 08:56:32;;;;;;;74.90;6.77;;;18.70;1.00;;;;;;5022677;28;20916;-83
2023/08/26 08:58:59;;;;;;;71.50;6.87;;;18.80;1.00;;;;;;5040320;28;20546;-83
2023/08/26 09:01:28;;;;;;;73.27;7.47;;;18.80;1.00;;;;;;5040901;28;20833;-83
2023/08/26 09:03:56;;;;;;;75.23;8.67;;;18.90;1.00;;;;;;5039977;28;20997;-83
2023/08/26 09:06:22;;;;;;;74.47;9.40;;;18.90;1.00;;;;;;5038548;28;20427;-83
2023/08/26 09:08:48;;;;;;;72.40;8.17;;;19.00;1.00;;;;;;5039599;28;20400;-83
2023/08/26 09:11:14;;;;;;;73.60;8.17;;;19.00;1.00;;;;;;5039420;28;20209;-83
2023/08/26 09:13:40;;;;;;;74.80;8.37;;;19.00;1.00;;;;;;5039016;28;20780;-83
2023/08/26 09:16:06;;;;;;;73.07;9.33;;;19.10;1.00;;;;;;5039511;28;20424;-83
2023/08/26 09:18:39;;;;;;;72.43;9.17;;;19.20;1.00;;;;;;5040051;28;20167;-83
2023/08/26 09:21:08;;;;;;;72.43;10.57;;;19.30;1.00;;;;;;5039703;28;20513;-83
2023/08/26 09:23:44;;;;;;;71.27;8.67;;;19.30;1.00;;;;;;5039580;28;20400;-83
2023/08/26 09:26:10;;;;;;;71.73;9.30;;;19.40;1.00;;;;;;5039866;28;20400;-83
2023/08/26 09:28:46;;;;;;;72.57;9.03;;;19.40;1.00;;;;;;5039456;28;20423;-83
2023/08/26 09:31:13;;;;;;;71.30;9.40;;;19.50;1.00;;;;;;5039513;28;20419;-83
2023/08/26 09:33:38;;;;;;;71.63;10.80;;;19.60;1.00;;;;;;5039291;28;20396;-83
2023/08/26 09:36:04;;;;;;;73.00;12.20;;;19.70;1.00;;;;;;5039810;28;20813;-83
2023/08/26 09:38:44;;;;;;;75.83;12.57;;;19.80;1.00;;;;;;5039475;28;20637;-83
2023/08/26 09:41:10;;;;;;;73.90;11.33;;;19.90;1.00;;;;;;5021876;28;20326;-83
2023/08/26 09:43:39;;;;;;;73.40;14.50;;;19.90;1.00;;;;;;5039300;28;20919;-83
2023/08/26 09:46:05;;;;;;;74.10;15.20;;;20.00;1.00;;;;;;5021404;28;20652;-83
2023/08/26 09:48:31;;;;;;;76.33;15.30;;;20.10;1.00;;;;;;5021741;28;20412;-82
2023/08/26 09:50:56;;;;;;;76.43;16.67;;;20.20;1.00;;;;;;5038935;28;20284;-83
2023/08/26 09:53:31;;;;;;;73.90;13.30;;;20.40;1.00;;;;;;5039235;28;20403;-83
2023/08/26 09:55:58;;;;;;;72.77;11.43;;;20.50;1.00;;;;;;5038916;28;20641;-83
2023/08/26 09:58:24;;;;;;;70.30;6.20;;;20.70;1.00;;;;;;5020777;28;20875;-82
2023/08/26 10:00:52;;;;;;;73.63;6.90;;;20.90;1.00;;;;;;5039006;28;20454;-82
2023/08/26 10:03:22;;;;;;;71.40;6.20;;;20.90;1.00;;;;;;5038731;28;20605;-83
2023/08/26 10:05:51;;;;;;;71.87;5.40;;;20.90;1.00;;;;;;5020984;28;20412;-83
2023/08/26 10:08:19;;;;;;;72.07;6.27;;;20.90;1.00;;;;;;5037977;28;20397;-82
2023/08/26 10:10:54;;;;;;;71.40;7.17;;;21.10;1.00;;;;;;5038485;28;20432;-83
2023/08/26 10:13:24;;;;;;;70.47;5.87;;;21.10;1.00;;;;;;5020378;28;20410;-83
2023/08/26 10:15:52;;;;;;;75.10;5.07;;;21.20;1.00;;;;;;5020556;28;20812;-82
2023/08/26 10:18:30;;;;;;;73.80;7.17;;;21.40;1.00;;;;;;5039045;28;20454;-82
2023/08/26 10:20:56;;;;;;;70.60;5.37;;;21.60;1.00;;;;;;5037940;28;20515;-83
2023/08/26 10:23:24;;;;;;;70.83;5.30;;;21.70;1.00;;;;;;5019605;28;20526;-82
2023/08/26 10:25:50;;;;;;;71.40;5.13;;;21.90;1.00;;;;;;5036976;28;20404;-82
2023/08/26 10:28:19;;;;;;;72.80;7.30;;;22.00;1.00;;;;;;5038504;28;20755;-82
2023/08/26 10:30:45;;;;;;;69.80;3.70;;;22.30;1.00;;;;;;5038475;28;20419;-83
2023/08/26 10:33:10;;;;;;;71.63;3.47;;;22.40;1.00;;;;;;5038802;28;20401;-83
2023/08/26 10:35:39;;;;;;;70.30;4.63;;;22.30;1.00;;;;;;5037903;28;20399;-82
2023/08/26 10:38:10;;;;;;;69.47;3.63;;;22.00;1.00;;;;;;5038264;28;20193;-82
2023/08/26 10:40:36;;;;;;;69.60;3.87;;;21.90;1.00;;;;;;5019995;28;20505;-83
2023/08/26 10:43:11;;;;;;;70.20;4.40;;;21.90;1.00;;;;;;5038681;28;20392;-83
2023/08/26 10:45:49;;;;;;;70.67;4.37;;;21.60;1.00;;;;;;5037825;28;20522;-83
2023/08/26 10:48:16;;;;;;;70.97;5.80;;;21.70;1.00;;;;;;5037893;28;20398;-83
2023/08/26 10:50:44;;;;;;;72.40;4.70;;;21.80;1.00;;;;;;5037764;28;20435;-83
2023/08/26 10:53:22;;;;;;;71.40;5.50;;;22.20;1.00;;;;;;5020156;28;20419;-82
2023/08/26 10:55:54;;;;;;;72.53;6.40;;;22.40;1.00;;;;;;5038486;28;20414;-83
2023/08/26 10:58:40;;;;;;;73.43;9.03;;;22.70;1.00;;;;;;5038323;28;20390;-83
2023/08/26 11:01:06;;;;;;;77.10;11.27;;;23.00;1.00;;;;;;5037849;28;20949;-83
2023/08/26 11:03:37;;;;;;;72.57;9.83;;;23.20;1.00;;;;;;5019471;28;20415;-82
2023/08/26 11:06:10;;;;;;;74.47;15.50;;;23.50;1.00;;;;;;5019350;28;20951;-83
2023/08/26 11:08:37;;;;;;;73.47;10.57;;;23.80;1.00;;;;;;5019654;28;20924;-83
2023/08/26 11:11:03;;;;;;;72.17;7.53;;;24.00;1.00;;;;;;5038018;28;20779;-82
2023/08/26 11:13:32;;;;;;;69.77;3.10;;;24.10;1.00;;;;;;5037480;28;20460;-83
2023/08/26 11:15:58;;;;;;;73.97;9.17;;;24.20;1.00;;;;;;5035874;28;20188;-83
2023/08/26 11:18:24;;;;;;;70.90;4.40;;;24.10;1.00;;;;;;5037597;28;20428;-83
2023/08/26 11:20:53;;;;;;;78.70;18.87;;;24.20;1.00;;;;;;5036712;28;20695;-83
2023/08/26 11:23:24;;;;;;;72.90;5.23;;;24.20;1.00;;;;;;5037908;28;20408;-83
2023/08/26 11:25:49;;;;;;;71.37;3.63;;;24.40;1.00;;;;;;5037720;28;20416;-83
2023/08/26 11:28:15;;;;;;;70.47;3.43;;;24.70;1.00;;;;;;5019461;28;20442;-82
2023/08/26 11:30:49;;;;;;;71.50;5.73;;;24.80;1.00;;;;;;5036835;28;20204;-83
2023/08/26 11:33:16;;;;;;;72.37;7.13;;;25.00;1.00;;;;;;5019591;28;20161;-83
2023/08/26 11:35:47;;;;;;;72.77;4.40;;;25.20;1.00;;;;;;5040387;28;20404;-83
2023/08/26 11:38:13;;;;;;;73.00;3.33;;;24.80;1.00;;;;;;5041857;28;20491;-83
2023/08/26 11:40:43;;;;;;;71.90;2.90;;;24.40;1.00;;;;;;5041903;28;20463;-83
2023/08/26 11:43:17;;;;;;;69.80;2.90;;;24.40;1.00;;;;;;5041481;28;20397;-83
2023/08/26 11:45:46;;;;;;;70.47;3.33;;;24.20;1.00;;;;;;5041256;28;20386;-83
2023/08/26 11:48:13;;;;;;;71.60;3.10;;;24.00;1.00;;;;;;5041221;28;20439;-83
2023/08/26 11:50:40;;;;;;;70.70;2.60;;;23.60;1.00;;;;;;5040934;28;20463;-83
2023/08/26 11:53:06;;;;;;;70.77;2.90;;;23.50;1.00;;;;;;5023333;28;20799;-83
2023/08/26 11:55:35;;;;;;;71.77;7.10;;;23.60;1.00;;;;;;5040991;28;20930;-83
2023/08/26 11:58:03;;;;;;;70.63;4.70;;;23.40;1.00;;;;;;5041475;28;20419;-83
2023/08/26 12:00:29;;;;;;;69.50;2.90;;;23.40;1.00;;;;;;5041180;28;20475;-83
2023/08/26 12:03:04;;;;;;;70.30;2.93;;;23.50;1.00;;;;;;5041179;28;20904;-83
2023/08/26 12:05:44;;;;;;;70.33;3.40;;;23.80;1.00;;;;;;5041570;28;20391;-83
2023/08/26 12:08:17;;;;;;;72.97;10.87;;;23.80;1.00;;;;;;5041168;28;20772;-83
2023/08/26 12:10:47;;;;;;;74.50;15.50;;;23.90;1.00;;;;;;5040856;28;20427;-83
2023/08/26 12:13:12;;;;;;;74.83;11.27;;;23.80;1.00;;;;;;5041038;28;20454;-82
2023/08/26 12:15:42;;;;;;;74.93;15.77;;;23.70;1.00;;;;;;5022663;28;20440;-83
2023/08/26 12:18:09;;;;;;;73.27;14.70;;;23.80;1.00;;;;;;5040521;28;20771;-83
2023/08/26 12:20:37;;;;;;;75.80;12.97;;;23.80;1.00;;;;;;5040238;28;20459;-83
2023/08/26 12:23:05;;;;;;;72.07;3.73;;;23.90;1.00;;;;;;5040608;28;20929;-83
2023/08/26 12:25:35;;;;;;;71.70;3.10;;;24.20;1.00;;;;;;5040121;28;20418;-82
2023/08/26 12:28:12;;;;;;;75.00;4.97;;;24.10;1.00;;;;;;5041116;28;20385;-82
2023/08/26 12:30:39;;;;;;;74.00;3.30;;;24.50;1.00;;;;;;5039842;28;20424;-82
2023/08/26 12:33:06;;;;;;;72.67;11.03;;;24.60;1.00;;;;;;5022740;28;20416;-83